createdAt,value
2022-12-19T00:01:36.678Z,99365.56
2022-12-19T00:04:08.541Z,99371.84
2022-12-19T00:06:37.406Z,99370.78
2022-12-19T00:09:05.184Z,99368.06
2022-12-19T00:11:33.218Z,99362.44
2022-12-19T00:14:00.824Z,99354.66
2022-12-19T00:16:29.447Z,99354.88
2022-12-19T00:19:02.736Z,99351.13
2022-12-19T00:21:30.870Z,99344.22
2022-12-19T00:23:58.883Z,99345.25
2022-12-19T00:26:34.156Z,99342.75
2022-12-19T00:29:02.939Z,99333.53
2022-12-19T00:31:32.510Z,99338.56
2022-12-19T00:34:02.362Z,99331.84
2022-12-19T00:36:32.227Z,99337.31
2022-12-19T00:39:00.527Z,99323.91
2022-12-19T00:41:30.029Z,99323.91
2022-12-19T00:43:59.217Z,99315.75
2022-12-19T00:46:27.314Z,99313.03
2022-12-19T00:48:54.927Z,99316.78
2022-12-19T00:51:24.798Z,99321.63
2022-12-19T00:53:53.395Z,99325.38
2022-12-19T00:56:23.146Z,99310.09
2022-12-19T00:58:50.342Z,99326.19
2022-12-19T01:01:23.097Z,99323.69
2022-12-19T01:04:25.917Z,99305.50
2022-12-19T01:06:36.937Z,99311.56
2022-12-19T01:09:03.793Z,99314.50
2022-12-19T01:11:49.209Z,99314.50
2022-12-19T01:14:22.383Z,99318.25
2022-12-19T01:16:50.066Z,99308.44
2022-12-19T01:19:16.823Z,99300.06
2022-12-19T01:21:43.637Z,99281.03
2022-12-19T01:24:10.944Z,99268.47
2022-12-19T01:26:37.753Z,99258.63
2022-12-19T01:29:05.108Z,99255.09
2022-12-19T01:31:33.521Z,99270.75
2022-12-19T01:34:01.283Z,99270.75
2022-12-19T01:36:28.522Z,99274.72
2022-12-19T01:38:57.444Z,99281.44
2022-12-19T01:41:24.431Z,99284.75
2022-12-19T01:44:03.259Z,99289.16
2022-12-19T01:46:40.119Z,99295.84
2022-12-19T01:49:15.943Z,99288.16
2022-12-19T01:51:46.992Z,99273.47
2022-12-19T01:54:22.213Z,99267.00
2022-12-19T01:56:52.248Z,99268.69
2022-12-19T01:59:27.698Z,99277.44
2022-12-19T02:02:00.281Z,99279.34
2022-12-19T02:04:30.272Z,99281.84
2022-12-19T02:07:05.147Z,99282.06
2022-12-19T02:09:45.410Z,99274.94
2022-12-19T02:12:12.826Z,99280.59
2022-12-19T02:14:40.347Z,99281.63
2022-12-19T02:17:42.649Z,99277.88
2022-12-19T02:20:26.771Z,99278.91
2022-12-19T02:23:15.221Z,99278.91
2022-12-19T02:26:01.721Z,99284.34
2022-12-19T02:29:05.819Z,99275.16
2022-12-19T02:31:43.438Z,99277.88
2022-12-19T02:34:29.736Z,99290.44
2022-12-19T02:37:12.548Z,99297.56
2022-12-19T02:39:55.846Z,99280.16
2022-12-19T02:42:34.936Z,99272.22
2022-12-19T02:45:05.699Z,99276.84
2022-12-19T02:47:33.388Z,99267.63
2022-12-19T02:50:00.098Z,99265.53
2022-12-19T02:52:26.745Z,99260.91
2022-12-19T02:55:07.856Z,99251.72
2022-12-19T02:57:42.097Z,99257.78
2022-12-19T03:00:13.531Z,99243.56
2022-12-19T03:02:57.934Z,99245.25
2022-12-19T03:06:05.580Z,99249.41
2022-12-19T03:08:57.495Z,99259.22
2022-12-19T03:11:31.975Z,99242.91
2022-12-19T03:14:06.583Z,99241.88
2022-12-19T03:16:38.311Z,99232.66
2022-12-19T03:19:10.614Z,99236.44
2022-12-19T03:21:40.496Z,99239.16
2022-12-19T03:24:09.695Z,99249.81
2022-12-19T03:26:53.396Z,99226.41
2022-12-19T03:29:32.101Z,99241.44
2022-12-19T03:32:03.455Z,99233.09
2022-12-19T03:34:39.315Z,99243.13
2022-12-19T03:37:10.844Z,99242.28
2022-12-19T03:39:41.496Z,99231.41
2022-12-19T03:42:29.085Z,99218.63
2022-12-19T03:44:58.622Z,99231.81
2022-12-19T03:47:35.536Z,99223.63
2022-12-19T03:50:02.552Z,99222.59
2022-12-19T03:52:53.897Z,99222.59
2022-12-19T03:55:41.192Z,99225.75
2022-12-19T03:58:18.354Z,99223.25
2022-12-19T04:00:49.947Z,99206.06
2022-12-19T04:03:18.495Z,99205.84
2022-12-19T04:05:50.767Z,99205.44
2022-12-19T04:08:17.960Z,99197.47
2022-12-19T04:10:51.626Z,99219.84
2022-12-19T04:13:25.965Z,99203.31
2022-12-19T04:16:04.068Z,99214.56
2022-12-19T04:18:31.572Z,99222.53
2022-12-19T04:21:13.387Z,99218.16
2022-12-19T04:23:48.966Z,99216.91
2022-12-19T04:26:17.166Z,99210.56
2022-12-19T04:28:58.313Z,99196.06
2022-12-19T04:31:25.373Z,99211.13
2022-12-19T04:33:52.119Z,99194.31
2022-12-19T04:36:18.937Z,99196.56
2022-12-19T04:38:45.779Z,99196.34
2022-12-19T04:41:12.592Z,99198.00
2022-12-19T04:43:39.261Z,99200.28
2022-12-19T04:46:06.372Z,99186.84
2022-12-19T04:48:35.860Z,99182.00
2022-12-19T04:51:02.581Z,99191.03
2022-12-19T04:53:29.633Z,99175.28
2022-12-19T04:56:03.379Z,99175.31
2022-12-19T04:58:30.421Z,99174.09
2022-12-19T05:01:11.891Z,99161.59
2022-12-19T05:03:38.879Z,99165.81
2022-12-19T05:06:09.564Z,99159.13
2022-12-19T05:08:38.395Z,99162.69
2022-12-19T05:11:06.544Z,99158.56
2022-12-19T05:13:33.173Z,99167.13
2022-12-19T05:16:07.149Z,99165.91
2022-12-19T05:18:34.556Z,99161.53
2022-12-19T05:21:01.394Z,99163.84
2022-12-19T05:23:28.988Z,99164.06
2022-12-19T05:25:59.969Z,99156.31
2022-12-19T05:28:26.648Z,99150.03
2022-12-19T05:31:03.389Z,99145.44
2022-12-19T05:33:30.271Z,99139.38
2022-12-19T05:35:57.058Z,99142.53
2022-12-19T05:38:23.969Z,99138.13
2022-12-19T05:40:50.653Z,99144.44
2022-12-19T05:43:17.425Z,99139.38
2022-12-19T05:45:44.357Z,99136.06
2022-12-19T05:48:11.145Z,99132.53
2022-12-19T05:50:37.832Z,99132.53
2022-12-19T05:53:04.626Z,99129.16
2022-12-19T05:55:31.692Z,99124.75
2022-12-19T05:57:58.302Z,99125.84
2022-12-19T06:00:25.866Z,99135.88
2022-12-19T06:02:54.991Z,99128.56
2022-12-19T06:05:21.698Z,99127.50
2022-12-19T06:07:48.624Z,99120.19
2022-12-19T06:10:15.404Z,99122.03
2022-12-19T06:12:42.047Z,99097.56
2022-12-19T06:15:09.264Z,99102.16
2022-12-19T06:17:35.959Z,99106.78
2022-12-19T06:20:02.664Z,99089.81
2022-12-19T06:22:29.491Z,99107.41
2022-12-19T06:24:56.226Z,99101.16
2022-12-19T06:27:22.842Z,99098.22
2022-12-19T06:29:49.678Z,99099.03
2022-12-19T06:32:16.408Z,99093.59
2022-12-19T06:37:29.905Z,99092.56
2022-12-19T06:39:56.582Z,99089.81
2022-12-19T06:42:23.240Z,99085.25
2022-12-19T06:44:56.008Z,99104.88
2022-12-19T06:47:23.840Z,99082.06
2022-12-19T06:49:50.658Z,99095.25
2022-12-19T06:52:18.230Z,99093.97
2022-12-19T06:54:44.949Z,99091.84
2022-12-19T06:57:11.838Z,99096.84
2022-12-19T06:59:38.619Z,99095.59
2022-12-19T07:02:31.511Z,99090.16
2022-12-19T07:05:03.209Z,99086.59
2022-12-19T07:07:30.199Z,99074.66
2022-12-19T07:09:56.929Z,99067.53
2022-12-19T07:12:23.848Z,99066.72
2022-12-19T07:14:53.633Z,99065.88
2022-12-19T07:17:22.271Z,99062.09
2022-12-19T07:19:49.065Z,99061.06
2022-12-19T07:22:15.946Z,99053.72
2022-12-19T07:24:43.028Z,99078.00
2022-12-19T07:27:09.808Z,99078.00
2022-12-19T07:29:36.549Z,99059.97
2022-12-19T07:32:03.300Z,99060.59
2022-12-19T07:34:30.363Z,99068.78
2022-12-19T07:36:57.097Z,99068.78
2022-12-19T07:39:23.853Z,99087.00
2022-12-19T07:41:50.577Z,99067.50
2022-12-19T07:44:17.507Z,99063.75
2022-12-19T07:46:44.801Z,99059.13
2022-12-19T07:49:11.660Z,99068.09
2022-12-19T07:51:38.345Z,99063.50
2022-12-19T07:54:05.083Z,99072.72
2022-12-19T07:56:31.869Z,99066.47
2022-12-19T07:58:59.215Z,99086.13
2022-12-19T08:01:28.460Z,99082.13
2022-12-19T08:03:57.133Z,99086.91
2022-12-19T08:06:24.720Z,99069.28
2022-12-19T08:08:51.361Z,99070.53
2022-12-19T08:11:27.472Z,99072.56
2022-12-19T08:13:54.593Z,99066.81
2022-12-19T08:16:21.414Z,99060.91
2022-12-19T08:18:48.520Z,99061.97
2022-12-19T08:21:15.239Z,99054.25
2022-12-19T08:23:41.900Z,99062.88
2022-12-19T08:26:12.344Z,99052.97
2022-12-19T08:28:39.265Z,99054.59
2022-12-19T08:31:11.180Z,99066.72
2022-12-19T08:33:38.462Z,99052.84
2022-12-19T08:36:10.548Z,99054.22
2022-12-19T08:38:39.820Z,99057.13
2022-12-19T08:41:06.812Z,99057.72
2022-12-19T08:43:33.613Z,99057.72
2022-12-19T08:46:00.441Z,99059.16
2022-12-19T08:48:27.579Z,99050.00
2022-12-19T08:50:57.552Z,99054.91
2022-12-19T08:53:26.819Z,99046.34
2022-12-19T08:55:58.715Z,99047.84
2022-12-19T08:58:26.420Z,99047.25
2022-12-19T09:00:57.602Z,99034.06
2022-12-19T09:03:36.801Z,99029.91
2022-12-19T09:06:19.222Z,99026.13
2022-12-19T09:08:46.838Z,99017.50
2022-12-19T09:11:18.647Z,99028.09
2022-12-19T09:13:46.925Z,99031.38
2022-12-19T09:16:19.900Z,99025.88
2022-12-19T09:18:49.056Z,99022.63
2022-12-19T09:21:16.982Z,99022.09
2022-12-19T09:23:47.979Z,99021.16
2022-12-19T09:26:16.899Z,99021.38
2022-12-19T09:28:43.609Z,99016.06
2022-12-19T09:31:19.242Z,99014.78
2022-12-19T09:33:46.839Z,99007.34
2022-12-19T09:36:19.707Z,99011.06
2022-12-19T09:38:46.363Z,99003.47
2022-12-19T09:41:47.112Z,99010.59
2022-12-19T09:44:41.734Z,99011.19
2022-12-19T09:47:32.988Z,98993.75
2022-12-19T09:50:01.783Z,98998.84
2022-12-19T09:52:40.492Z,98998.09
2022-12-19T09:55:28.936Z,98994.38
2022-12-19T09:58:37.248Z,98995.31
2022-12-19T10:01:14.093Z,98997.06
2022-12-19T10:03:48.216Z,98985.72
2022-12-19T10:07:06.790Z,98986.41
2022-12-19T10:11:49.574Z,98978.69
2022-12-19T10:12:42.399Z,98982.72
2022-12-19T10:15:36.685Z,98964.91
2022-12-19T10:18:16.605Z,98963.09
2022-12-19T10:21:06.987Z,98968.16
2022-12-19T10:23:45.711Z,98973.84
2022-12-19T10:26:20.784Z,98965.91
2022-12-19T10:29:09.079Z,98962.31
2022-12-19T10:31:41.808Z,98961.50
2022-12-19T10:34:08.363Z,98964.47
2022-12-19T10:37:19.386Z,98952.75
2022-12-19T10:39:46.185Z,98944.56
2022-12-19T10:42:25.354Z,98933.44
2022-12-19T10:44:53.543Z,98921.25
2022-12-19T10:47:20.275Z,98915.91
2022-12-19T10:49:47.164Z,98923.03
2022-12-19T10:52:13.788Z,98917.81
2022-12-19T10:54:43.798Z,98918.06
2022-12-19T10:57:22.742Z,98910.13
2022-12-19T11:00:06.964Z,98910.13
2022-12-19T11:02:39.785Z,98908.22
2022-12-19T11:05:22.650Z,98916.38
2022-12-19T11:08:11.397Z,98910.13
2022-12-19T11:11:29.345Z,98903.81
2022-12-19T11:19:40.040Z,98896.47
2022-12-19T11:21:48.338Z,98893.75
2022-12-19T11:22:39.872Z,98898.34
2022-12-19T11:29:33.479Z,98881.78
2022-12-19T11:29:37.047Z,98882.63
2022-12-19T11:29:42.225Z,98866.03
2022-12-19T11:33:19.563Z,98865.00
2022-12-19T11:35:52.315Z,98855.13
2022-12-19T11:38:38.453Z,98855.97
2022-12-19T11:41:19.549Z,98851.34
2022-12-19T11:44:11.946Z,98842.09
2022-12-19T11:46:56.988Z,98834.53
2022-12-19T11:49:40.749Z,98833.16
2022-12-19T11:53:02.763Z,98834.94
2022-12-19T11:55:24.767Z,98833.38
2022-12-19T11:57:53.336Z,98835.75
2022-12-19T12:00:22.797Z,98851.19
2022-12-19T12:03:40.769Z,98854.28
2022-12-19T12:06:16.363Z,98849.66
2022-12-19T12:10:42.674Z,98848.66
2022-12-19T12:18:46.716Z,98857.69
2022-12-19T12:24:37.773Z,98860.78
2022-12-19T12:31:01.643Z,98851.50
2022-12-19T12:31:22.105Z,98857.56
2022-12-19T12:31:26.201Z,98858.03
2022-12-19T12:31:43.409Z,98859.13
2022-12-19T12:32:03.365Z,98854.41
2022-12-19T12:35:56.812Z,98852.22
2022-12-19T12:39:00.710Z,98869.00
2022-12-19T12:41:56.313Z,98860.47
2022-12-19T12:44:33.151Z,98866.56
2022-12-19T12:47:20.577Z,98874.78
2022-12-19T12:49:56.879Z,98890.00
2022-12-19T12:52:34.495Z,98893.00
2022-12-19T12:55:03.310Z,98906.19
2022-12-19T12:57:30.163Z,98908.06
2022-12-19T13:00:25.610Z,98927.13
2022-12-19T13:03:06.072Z,98929.63
2022-12-19T13:05:51.197Z,98929.75
2022-12-19T13:08:38.188Z,98947.59
2022-12-19T13:11:49.723Z,98955.31
2022-12-19T13:14:34.671Z,98960.97
2022-12-19T13:17:06.225Z,98972.72
2022-12-19T13:19:38.727Z,98994.16
2022-12-19T13:22:05.606Z,98991.19
2022-12-19T13:24:50.171Z,98993.72
2022-12-19T13:27:19.913Z,99002.50
2022-12-19T13:29:54.051Z,98996.31
2022-12-19T13:32:22.252Z,99016.91
2022-12-19T13:35:06.226Z,99018.56
2022-12-19T13:39:52.265Z,99087.31
2022-12-19T13:41:30.380Z,99093.59
2022-12-19T13:44:00.084Z,99113.28
2022-12-19T13:46:39.837Z,99121.31
2022-12-19T13:49:24.190Z,99124.69
2022-12-19T13:51:57.160Z,99136.75
2022-12-19T13:54:48.580Z,99149.47
2022-12-19T13:57:32.281Z,99151.59
2022-12-19T14:00:03.679Z,99155.00
2022-12-19T14:02:44.038Z,99165.31
2022-12-19T14:06:17.386Z,99164.69
2022-12-19T14:08:28.913Z,99181.88
2022-12-19T14:11:37.453Z,99184.38
2022-12-19T14:14:27.459Z,99183.31
2022-12-19T14:16:56.481Z,99193.59
2022-12-19T14:19:29.273Z,99213.34
2022-12-19T14:22:15.679Z,99217.34
2022-12-19T14:28:15.123Z,99226.00
2022-12-19T14:28:24.788Z,99245.53
2022-12-19T14:31:00.553Z,99244.06
2022-12-19T14:33:46.231Z,99247.00
2022-12-19T14:36:31.079Z,99264.44
2022-12-19T14:39:27.429Z,99268.63
2022-12-19T14:42:06.788Z,99276.63
2022-12-19T14:52:51.858Z,99287.72
2022-12-19T14:53:52.661Z,99305.31
2022-12-19T14:54:16.637Z,99317.28
2022-12-19T14:54:28.757Z,99341.16
2022-12-19T14:56:56.039Z,99338.88
2022-12-19T14:59:05.606Z,99363.19
2022-12-19T15:01:35.162Z,99360.25
2022-12-19T15:04:52.764Z,99368.84
2022-12-19T15:07:08.493Z,99374.13
2022-12-19T15:11:05.009Z,99387.72
2022-12-19T15:14:46.844Z,99377.44
2022-12-19T15:16:02.952Z,99390.03
2022-12-19T15:18:32.805Z,99405.72
2022-12-19T15:21:05.697Z,99407.19
2022-12-19T15:23:32.778Z,99427.91
2022-12-19T15:26:07.041Z,99426.06
2022-12-19T15:28:48.135Z,99428.97
2022-12-19T15:31:43.703Z,99444.06
2022-12-19T15:36:58.186Z,99442.78
2022-12-19T15:39:26.197Z,99450.75
2022-12-19T15:41:54.889Z,99457.25
2022-12-19T15:44:36.848Z,99453.22
2022-12-19T15:47:06.686Z,99454.44
2022-12-19T15:49:35.219Z,99455.22
2022-12-19T15:52:03.278Z,99458.53
2022-12-19T15:57:24.890Z,99470.00
2022-12-19T15:59:52.128Z,99480.00
2022-12-19T16:02:22.821Z,99469.91
2022-12-19T16:04:51.309Z,99477.22
2022-12-19T16:07:20.991Z,99483.47
2022-12-19T16:09:48.836Z,99488.25
2022-12-19T16:12:22.021Z,99494.28
2022-12-19T16:14:56.648Z,99499.66
2022-12-19T16:17:25.202Z,99495.69
2022-12-19T16:19:51.947Z,99510.94
2022-12-19T16:22:22.588Z,99519.09
2022-12-19T16:24:51.548Z,99513.03
2022-12-19T16:27:38.431Z,99528.66
2022-12-19T16:30:22.247Z,99543.13
2022-12-19T16:32:50.238Z,99538.09
2022-12-19T16:35:34.560Z,99541.22
2022-12-19T16:38:07.488Z,99542.41
2022-12-19T16:40:34.209Z,99549.66
2022-12-19T16:43:10.671Z,99546.06
2022-12-19T16:45:38.180Z,99548.91
2022-12-19T16:48:21.010Z,99553.44
2022-12-19T16:50:48.722Z,99553.19
2022-12-19T16:53:15.797Z,99552.75
2022-12-19T16:55:43.539Z,99545.19
2022-12-19T16:58:22.496Z,99544.75
2022-12-19T17:00:52.193Z,99552.41
2022-12-19T17:03:38.064Z,99571.41
2022-12-19T17:06:04.792Z,99569.38
2022-12-19T17:08:32.500Z,99573.34
2022-12-19T17:10:59.408Z,99580.25
2022-12-19T17:13:26.848Z,99576.91
2022-12-19T17:15:57.041Z,99591.13
2022-12-19T17:18:29.076Z,99588.03
2022-12-19T17:20:55.865Z,99588.66
2022-12-19T17:23:24.447Z,99597.84
2022-12-19T17:25:52.153Z,99602.44
2022-12-19T17:28:18.853Z,99613.03
2022-12-19T17:30:51.254Z,99610.63
2022-12-19T17:33:19.367Z,99613.44
2022-12-19T17:35:46.904Z,99620.50
2022-12-19T17:38:15.883Z,99631.72
2022-12-19T17:40:43.817Z,99633.81
2022-12-19T17:43:12.301Z,99640.63
2022-12-19T17:45:40.149Z,99654.56
2022-12-19T17:48:32.774Z,99632.22
2022-12-19T17:51:00.182Z,99654.56
2022-12-19T17:53:27.140Z,99654.84
2022-12-19T17:55:54.117Z,99660.16
2022-12-19T17:58:21.772Z,99660.25
2022-12-19T18:00:50.139Z,99664.88
2022-12-19T18:03:22.099Z,99657.22
2022-12-19T18:05:50.711Z,99654.13
2022-12-19T18:08:30.625Z,99659.16
2022-12-19T18:11:02.862Z,99667.78
2022-12-19T18:13:31.942Z,99680.75
2022-12-19T18:16:01.491Z,99674.31
2022-12-19T18:18:35.305Z,99683.03
2022-12-19T18:21:02.924Z,99677.91
2022-12-19T18:23:32.813Z,99681.28
2022-12-19T18:26:02.450Z,99676.34
2022-12-19T18:28:30.105Z,99674.94
2022-12-19T18:31:03.288Z,99674.03
2022-12-19T18:33:37.166Z,99690.16
2022-12-19T18:36:05.923Z,99675.50
2022-12-19T18:38:33.000Z,99691.31
2022-12-19T18:41:00.033Z,99702.53
2022-12-19T18:43:26.764Z,99694.94
2022-12-19T18:45:53.962Z,99696.16
2022-12-19T18:48:31.045Z,99694.84
2022-12-19T18:50:59.616Z,99698.13
2022-12-19T18:53:35.610Z,99700.53
2022-12-19T18:56:04.530Z,99700.25
2022-12-19T18:58:31.399Z,99703.34
2022-12-19T19:01:00.000Z,99695.56
2022-12-19T19:03:31.666Z,99702.22
2022-12-19T19:05:58.921Z,99701.56
2022-12-19T19:08:28.567Z,99704.81
2022-12-19T19:10:56.518Z,99708.53
2022-12-19T19:13:25.542Z,99699.94
2022-12-19T19:15:54.203Z,99718.44
2022-12-19T19:18:25.431Z,99707.59
2022-12-19T19:21:00.747Z,99701.31
2022-12-19T19:23:33.673Z,99720.28
2022-12-19T19:26:00.362Z,99709.28
2022-12-19T19:28:27.030Z,99723.38
2022-12-19T19:30:55.006Z,99721.66
2022-12-19T19:33:26.165Z,99728.31
2022-12-19T19:35:58.437Z,99720.19
2022-12-19T19:38:25.240Z,99720.38
2022-12-19T19:40:51.901Z,99727.19
2022-12-19T19:43:18.747Z,99724.63
2022-12-19T19:45:46.923Z,99723.81
2022-12-19T19:48:13.991Z,99727.91
2022-12-19T19:50:40.794Z,99733.19
2022-12-19T19:53:10.422Z,99725.44
2022-12-19T19:55:38.546Z,99734.94
2022-12-19T19:58:05.363Z,99730.53
2022-12-19T20:00:32.008Z,99735.44
2022-12-19T20:03:02.030Z,99735.78
2022-12-19T20:05:31.695Z,99739.69
2022-12-19T20:07:58.325Z,99747.16
2022-12-19T20:10:24.969Z,99742.28
2022-12-19T20:12:51.832Z,99752.28
2022-12-19T20:15:18.566Z,99755.31
2022-12-19T20:17:45.512Z,99743.47
2022-12-19T20:20:12.527Z,99748.88
2022-12-19T20:22:39.241Z,99748.53
2022-12-19T20:25:06.151Z,99757.50
2022-12-19T20:27:32.877Z,99736.03
2022-12-19T20:29:59.564Z,99746.88
2022-12-19T20:32:26.382Z,99740.78
2022-12-19T20:34:53.160Z,99739.75
2022-12-19T20:37:19.787Z,99728.06
2022-12-19T20:39:46.455Z,99735.34
2022-12-19T20:42:13.383Z,99730.94
2022-12-19T20:44:40.070Z,99739.63
2022-12-19T20:47:06.723Z,99740.81
2022-12-19T20:49:33.636Z,99748.28
2022-12-19T20:52:00.426Z,99735.94
2022-12-19T20:54:27.078Z,99747.97
2022-12-19T20:56:54.064Z,99757.28
2022-12-19T20:59:20.723Z,99755.25
2022-12-19T21:01:47.561Z,99760.69
2022-12-19T21:04:14.969Z,99772.50
2022-12-19T21:06:42.027Z,99756.44
2022-12-19T21:09:10.572Z,99751.03
2022-12-19T21:11:37.526Z,99758.97
2022-12-19T21:14:05.899Z,99758.13
2022-12-19T21:16:32.770Z,99750.69
2022-12-19T21:18:59.687Z,99758.63
2022-12-19T21:21:27.067Z,99762.84
2022-12-19T21:23:54.630Z,99761.81
2022-12-19T21:26:23.307Z,99758.06
2022-12-19T21:28:50.820Z,99761.13
2022-12-19T21:31:25.301Z,99762.00
2022-12-19T21:33:58.324Z,99750.69
2022-12-19T21:36:25.748Z,99741.03
2022-12-19T21:38:55.270Z,99747.47
2022-12-19T21:41:22.615Z,99747.47
2022-12-19T21:43:53.759Z,99739.72
2022-12-19T21:46:23.893Z,99742.41
2022-12-19T21:48:52.529Z,99735.31
2022-12-19T21:51:20.918Z,99737.19
2022-12-19T21:53:48.592Z,99737.88
2022-12-19T21:56:32.344Z,99737.00
2022-12-19T21:59:02.056Z,99731.78
2022-12-19T22:01:30.293Z,99732.47
2022-12-19T22:04:02.835Z,99734.13
2022-12-19T22:06:31.909Z,99725.34
2022-12-19T22:09:00.262Z,99735.16
2022-12-19T22:11:28.771Z,99733.09
2022-12-19T22:13:55.863Z,99731.22
2022-12-19T22:16:22.579Z,99732.94
2022-12-19T22:18:51.496Z,99722.94
2022-12-19T22:21:19.204Z,99721.28
2022-12-19T22:23:45.828Z,99727.50
2022-12-19T22:26:15.954Z,99731.06
2022-12-19T22:28:47.281Z,99732.28
2022-12-19T22:31:37.524Z,99735.81
2022-12-19T22:34:07.134Z,99745.81
2022-12-19T22:36:36.057Z,99753.06
2022-12-19T22:39:05.997Z,99757.66
2022-12-19T22:41:34.443Z,99763.88
2022-12-19T22:44:01.521Z,99770.16
2022-12-19T22:46:31.320Z,99767.28
2022-12-19T22:49:02.475Z,99767.28
2022-12-19T22:51:31.089Z,99778.09
2022-12-19T22:53:58.842Z,99774.34
2022-12-19T22:56:28.577Z,99761.88
2022-12-19T22:58:59.030Z,99769.81
2022-12-19T23:01:28.953Z,99769.63
2022-12-19T23:03:58.524Z,99756.91
2022-12-19T23:06:28.025Z,99758.78
2022-12-19T23:08:54.974Z,99768.59
2022-12-19T23:11:26.295Z,99772.31
2022-12-19T23:13:53.189Z,99768.94
2022-12-19T23:16:20.090Z,99768.94
2022-12-19T23:18:46.803Z,99766.91
2022-12-19T23:21:17.540Z,99774.84
2022-12-19T23:23:45.771Z,99771.97
2022-12-19T23:26:19.326Z,99777.03
2022-12-19T23:28:57.676Z,99777.88
2022-12-19T23:31:24.937Z,99779.91
2022-12-19T23:33:51.945Z,99787.00
2022-12-19T23:36:38.221Z,99776.19
2022-12-19T23:39:05.793Z,99780.22
2022-12-19T23:41:32.834Z,99770.22
2022-12-19T23:43:59.731Z,99780.72
2022-12-19T23:46:27.166Z,99780.19
2022-12-19T23:48:55.031Z,99772.88
2022-12-19T23:51:25.524Z,99778.13
2022-12-19T23:53:53.338Z,99779.34
2022-12-19T23:56:23.355Z,99771.22
2022-12-19T23:58:50.207Z,99772.25
